Time;durP1;ratioP1;P1;durP2;ratioP2;P2;SDS_P1;SDS_P2;PMS_P1;PMS_P2;Temp;Humidity;BMP_temperature;BMP_pressure;BME280_temperature;BME280_humidity;BME280_pressure;Samples;Min_cycle;Max_cycle;Signal;HPM_P1;HPM_P2
2023/09/29 00:00:17;;;;;;;5.38;2.63;;;20.50;99.90;;;;;;5035457;28;20273;-72
2023/09/29 00:02:47;;;;;;;2.75;2.50;;;20.50;99.90;;;;;;5035981;28;20201;-70
2023/09/29 00:05:15;;;;;;;2.97;2.67;;;20.50;99.90;;;;;;5052975;28;20192;-69
2023/09/29 00:07:42;;;;;;;5.28;2.70;;;20.50;99.90;;;;;;5036146;28;20181;-71
2023/09/29 00:10:09;;;;;;;4.60;2.70;;;20.50;99.90;;;;;;5035675;28;20185;-70
2023/09/29 00:12:38;;;;;;;5.55;3.20;;;20.50;99.90;;;;;;5051108;28;20185;-71
2023/09/29 00:15:05;;;;;;;3.22;2.65;;;20.40;99.90;;;;;;5032934;28;20201;-71
2023/09/29 00:17:31;;;;;;;5.85;3.25;;;20.40;99.90;;;;;;5070485;28;20216;-70
2023/09/29 00:20:11;;;;;;;4.75;3.08;;;20.40;99.90;;;;;;5035745;28;20185;-72
2023/09/29 00:22:37;;;;;;;4.80;3.10;;;20.40;99.90;;;;;;5039188;28;20205;-71
2023/09/29 00:25:07;;;;;;;4.03;2.90;;;20.40;99.90;;;;;;5037078;28;20193;-72
2023/09/29 00:27:33;;;;;;;3.30;2.70;;;20.40;99.90;;;;;;5036624;28;20185;-70
2023/09/29 00:29:58;;;;;;;4.13;2.88;;;20.40;99.90;;;;;;5037462;28;20392;-70
2023/09/29 00:32:24;;;;;;;3.20;2.85;;;20.30;99.90;;;;;;5036285;28;20208;-70
2023/09/29 00:34:53;;;;;;;3.38;2.90;;;20.30;99.90;;;;;;5035295;28;20208;-70
2023/09/29 00:37:19;;;;;;;3.55;2.60;;;20.40;99.90;;;;;;5036370;28;20200;-71
2023/09/29 00:39:47;;;;;;;3.65;2.92;;;20.40;99.90;;;;;;5038897;28;20201;-71
2023/09/29 00:42:15;;;;;;;5.10;2.80;;;20.40;99.90;;;;;;5061857;28;20184;-71
2023/09/29 00:44:40;;;;;;;3.17;2.85;;;20.40;99.90;;;;;;5041988;28;20188;-69
2023/09/29 00:47:06;;;;;;;4.85;3.20;;;20.40;99.90;;;;;;5047144;28;20193;-71
2023/09/29 00:49:32;;;;;;;3.38;2.78;;;20.40;99.90;;;;;;5040714;28;20298;-71
2023/09/29 00:52:03;;;;;;;4.00;2.90;;;20.30;99.90;;;;;;5041107;28;20185;-71
2023/09/29 00:54:32;;;;;;;4.88;2.58;;;20.30;99.90;;;;;;5040189;28;20445;-71
2023/09/29 00:56:59;;;;;;;3.58;2.80;;;20.30;99.90;;;;;;5042661;28;20185;-71
2023/09/29 00:59:26;;;;;;;3.75;2.83;;;20.30;99.90;;;;;;5040117;28;20533;-71
2023/09/29 01:01:56;;;;;;;5.35;2.90;;;20.30;99.90;;;;;;5039763;28;20185;-71
2023/09/29 01:04:23;;;;;;;3.70;2.75;;;20.30;99.90;;;;;;5039761;28;20311;-71
2023/09/29 01:06:54;;;;;;;3.22;2.65;;;20.30;99.90;;;;;;5038657;28;20209;-71
2023/09/29 01:09:21;;;;;;;3.35;2.90;;;20.30;99.90;;;;;;5040776;28;20184;-71
2023/09/29 01:11:49;;;;;;;3.33;3.00;;;20.30;99.90;;;;;;5038804;28;20185;-70
2023/09/29 01:14:19;;;;;;;5.00;2.83;;;20.30;99.90;;;;;;5039910;28;20220;-71
2023/09/29 01:16:48;;;;;;;3.30;2.72;;;20.30;99.90;;;;;;5039391;28;20177;-71
2023/09/29 01:19:17;;;;;;;4.32;2.88;;;20.30;99.90;;;;;;5039241;28;20204;-71
2023/09/29 01:21:48;;;;;;;3.92;3.00;;;20.20;99.90;;;;;;5038390;28;20273;-70
2023/09/29 01:24:14;;;;;;;3.83;2.95;;;20.20;99.90;;;;;;5039211;28;20186;-70
2023/09/29 01:26:44;;;;;;;2.95;2.65;;;20.20;99.90;;;;;;5041496;28;20219;-70
2023/09/29 01:29:12;;;;;;;5.72;2.53;;;20.20;99.90;;;;;;5041126;28;20189;-70
2023/09/29 01:31:41;;;;;;;3.97;2.90;;;20.20;99.90;;;;;;5038748;28;20190;-71
2023/09/29 01:34:07;;;;;;;3.47;2.63;;;20.30;99.90;;;;;;5039218;28;20186;-70
2023/09/29 01:36:35;;;;;;;4.00;2.55;;;20.20;99.90;;;;;;5040252;28;20193;-71
2023/09/29 01:39:00;;;;;;;3.47;2.67;;;20.20;99.90;;;;;;5040874;28;20265;-71
2023/09/29 01:41:27;;;;;;;3.97;2.70;;;20.20;99.90;;;;;;5038721;28;20177;-71
2023/09/29 01:43:55;;;;;;;5.22;2.97;;;20.20;99.90;;;;;;5040195;28;20176;-71
2023/09/29 01:46:20;;;;;;;4.25;2.88;;;20.20;99.90;;;;;;5038704;28;20201;-71
2023/09/29 01:48:46;;;;;;;4.03;3.00;;;20.20;99.90;;;;;;5038248;28;20185;-71
2023/09/29 01:51:11;;;;;;;4.88;3.03;;;20.20;99.90;;;;;;5035871;28;20250;-72
2023/09/29 01:53:37;;;;;;;3.97;3.00;;;20.20;99.90;;;;;;5039579;28;20240;-71
2023/09/29 01:56:03;;;;;;;3.83;3.22;;;20.30;99.90;;;;;;5040138;28;20182;-71
2023/09/29 01:58:29;;;;;;;3.85;3.22;;;20.20;99.90;;;;;;5037890;28;20199;-68
2023/09/29 02:00:55;;;;;;;3.97;2.90;;;20.20;99.90;;;;;;5039525;28;20328;-66
2023/09/29 02:03:21;;;;;;;3.60;2.78;;;20.20;99.90;;;;;;5041527;28;20264;-72
2023/09/29 02:05:47;;;;;;;3.33;2.90;;;20.30;99.90;;;;;;5039125;28;20205;-72
2023/09/29 02:08:15;;;;;;;4.03;3.17;;;20.30;99.90;;;;;;5037247;28;20180;-70
2023/09/29 02:10:41;;;;;;;4.78;2.80;;;20.30;99.90;;;;;;5038914;28;20242;-71
2023/09/29 02:13:10;;;;;;;5.32;2.90;;;20.30;99.90;;;;;;5037819;28;20188;-70
2023/09/29 02:15:38;;;;;;;3.72;2.80;;;20.30;99.90;;;;;;5038749;28;20274;-70
2023/09/29 02:18:09;;;;;;;3.42;2.45;;;20.30;99.90;;;;;;5036557;28;20209;-71
2023/09/29 02:20:36;;;;;;;3.15;2.60;;;20.30;99.90;;;;;;5041303;28;20266;-69
2023/09/29 02:23:07;;;;;;;5.70;3.13;;;20.30;99.90;;;;;;5039193;28;20188;-71
2023/09/29 02:25:37;;;;;;;3.50;2.60;;;20.30;99.90;;;;;;5037025;28;20209;-70
2023/09/29 02:28:03;;;;;;;3.47;2.50;;;20.30;99.90;;;;;;5038412;28;20177;-70
2023/09/29 02:30:30;;;;;;;3.33;2.72;;;20.30;99.90;;;;;;5072507;28;20189;-70
2023/09/29 02:32:58;;;;;;;3.25;2.72;;;20.40;99.90;;;;;;5037184;28;20184;-71
2023/09/29 02:35:23;;;;;;;3.55;2.67;;;20.40;99.90;;;;;;5035992;28;20185;-71
2023/09/29 02:37:52;;;;;;;4.65;2.67;;;20.40;99.90;;;;;;5039886;28;20244;-70
2023/09/29 02:40:18;;;;;;;3.38;2.70;;;20.40;99.90;;;;;;5039087;28;20199;-71
2023/09/29 02:42:47;;;;;;;4.55;2.33;;;20.40;99.90;;;;;;5039594;28;20201;-71
2023/09/29 02:45:15;;;;;;;3.90;2.65;;;20.40;99.90;;;;;;5037613;28;20203;-71
2023/09/29 02:47:46;;;;;;;3.08;2.70;;;20.40;99.90;;;;;;5038689;28;20176;-71
2023/09/29 02:50:12;;;;;;;3.58;2.67;;;20.40;99.90;;;;;;5038880;28;20179;-71
2023/09/29 02:52:40;;;;;;;3.17;2.50;;;20.40;99.90;;;;;;5038601;28;20184;-71
2023/09/29 02:55:12;;;;;;;4.13;2.83;;;20.40;99.90;;;;;;5036425;28;20193;-71
2023/09/29 02:57:37;;;;;;;3.13;2.30;;;20.40;99.90;;;;;;5038801;28;20201;-71
2023/09/29 03:00:10;;;;;;;3.47;2.67;;;20.40;99.90;;;;;;5037567;28;20204;-70
2023/09/29 03:02:35;;;;;;;3.97;2.72;;;20.40;99.90;;;;;;5038020;28;20177;-71
2023/09/29 03:05:01;;;;;;;4.63;2.90;;;20.40;99.90;;;;;;5038921;28;20219;-72
2023/09/29 03:07:27;;;;;;;3.58;2.55;;;20.40;99.90;;;;;;5038850;28;20268;-72
2023/09/29 03:09:55;;;;;;;3.28;2.75;;;20.40;99.90;;;;;;5038392;28;20185;-72
2023/09/29 03:12:25;;;;;;;3.28;2.65;;;20.40;99.90;;;;;;5036969;28;20192;-72
2023/09/29 03:14:52;;;;;;;3.55;2.50;;;20.40;99.90;;;;;;5036888;28;20185;-71
2023/09/29 03:17:18;;;;;;;3.00;2.67;;;20.40;99.90;;;;;;5036719;28;20338;-72
2023/09/29 03:19:46;;;;;;;4.00;2.58;;;20.40;99.90;;;;;;5037969;28;20277;-71
2023/09/29 03:22:17;;;;;;;3.83;2.92;;;20.40;99.90;;;;;;5034947;28;20189;-71
2023/09/29 03:24:42;;;;;;;3.10;2.25;;;20.40;99.90;;;;;;5037140;28;20301;-71
2023/09/29 03:27:10;;;;;;;4.43;2.70;;;20.50;99.90;;;;;;5035999;28;20234;-71
2023/09/29 03:29:36;;;;;;;2.83;2.17;;;20.50;99.90;;;;;;5037356;28;20193;-71
2023/09/29 03:32:03;;;;;;;4.70;3.00;;;20.50;99.90;;;;;;5037176;28;20180;-71
2023/09/29 03:34:28;;;;;;;7.45;2.85;;;20.50;99.90;;;;;;5039198;28;20174;-72
2023/09/29 03:36:56;;;;;;;3.97;2.90;;;20.50;99.90;;;;;;5037953;28;20212;-71
2023/09/29 03:39:24;;;;;;;4.15;2.55;;;20.50;99.90;;;;;;5069736;28;20532;-72
2023/09/29 03:41:52;;;;;;;5.35;2.55;;;20.50;99.90;;;;;;5037318;28;20266;-71
2023/09/29 03:44:20;;;;;;;3.45;2.35;;;20.60;99.90;;;;;;5036646;28;20275;-72
2023/09/29 03:46:45;;;;;;;5.53;2.58;;;20.60;99.90;;;;;;5037525;28;20197;-70
2023/09/29 03:49:11;;;;;;;5.15;2.78;;;20.60;99.90;;;;;;5036838;28;20228;-72
2023/09/29 03:51:39;;;;;;;2.85;2.53;;;20.60;99.90;;;;;;5037603;28;20177;-72
2023/09/29 03:54:09;;;;;;;3.28;2.40;;;20.70;99.90;;;;;;5036213;28;20231;-72
2023/09/29 03:56:37;;;;;;;3.38;2.50;;;20.70;99.90;;;;;;5036428;28;20244;-71
2023/09/29 03:59:05;;;;;;;3.20;2.53;;;20.70;99.90;;;;;;5036910;28;20182;-71
2023/09/29 04:01:31;;;;;;;3.90;2.83;;;20.70;99.90;;;;;;5035962;28;20201;-70
2023/09/29 04:03:56;;;;;;;4.40;3.20;;;20.70;99.90;;;;;;5037816;28;20187;-72
2023/09/29 04:06:22;;;;;;;5.00;4.40;;;20.80;99.90;;;;;;5036206;28;20189;-72
2023/09/29 04:08:48;;;;;;;3.75;3.28;;;20.80;99.90;;;;;;5036040;28;20212;-73
2023/09/29 04:11:18;;;;;;;4.47;2.80;;;20.80;99.90;;;;;;5036438;28;20201;-71
2023/09/29 04:13:43;;;;;;;3.67;2.85;;;20.80;99.90;;;;;;5037704;28;20181;-72
2023/09/29 04:16:10;;;;;;;3.63;2.58;;;20.80;99.90;;;;;;5036956;28;20262;-70
2023/09/29 04:18:38;;;;;;;2.83;2.50;;;20.80;99.90;;;;;;5037296;28;20193;-71
2023/09/29 04:21:13;;;;;;;2.85;2.55;;;20.80;99.90;;;;;;5036594;28;20189;-72
2023/09/29 04:23:42;;;;;;;5.50;2.90;;;20.80;99.90;;;;;;5036534;28;20187;-71
2023/09/29 04:26:19;;;;;;;3.60;2.58;;;20.80;99.90;;;;;;5038364;28;20217;-72
2023/09/29 04:28:45;;;;;;;4.57;3.03;;;20.80;99.90;;;;;;5037046;28;20205;-71
2023/09/29 04:31:12;;;;;;;4.95;3.60;;;20.80;99.90;;;;;;5037667;28;20208;-71
2023/09/29 04:33:43;;;;;;;3.58;2.72;;;20.80;99.90;;;;;;5035638;28;20196;-68
2023/09/29 04:36:09;;;;;;;3.60;3.00;;;20.80;99.90;;;;;;5036831;28;20189;-71
2023/09/29 04:38:36;;;;;;;5.38;2.92;;;20.80;99.90;;;;;;5037071;28;20246;-69
2023/09/29 04:41:02;;;;;;;3.00;2.70;;;20.80;99.90;;;;;;5037386;28;20204;-70
2023/09/29 04:43:30;;;;;;;3.50;2.63;;;20.80;99.90;;;;;;5037165;28;20234;-70
2023/09/29 04:45:58;;;;;;;3.85;2.40;;;20.80;99.90;;;;;;5035425;28;20197;-70
2023/09/29 04:48:26;;;;;;;3.80;2.60;;;20.70;99.90;;;;;;5035535;28;20315;-71
2023/09/29 04:50:51;;;;;;;4.90;2.83;;;20.70;99.90;;;;;;5038520;28;20264;-70
2023/09/29 04:53:17;;;;;;;3.40;2.90;;;20.70;99.90;;;;;;5036778;28;20269;-69
2023/09/29 04:55:47;;;;;;;3.03;2.15;;;20.70;99.90;;;;;;5036901;28;20215;-71
2023/09/29 04:58:15;;;;;;;7.78;2.67;;;20.70;99.90;;;;;;5035644;28;20189;-71
2023/09/29 05:00:42;;;;;;;3.75;2.70;;;20.70;99.90;;;;;;5037888;28;20181;-71
2023/09/29 05:03:08;;;;;;;2.47;2.08;;;20.70;99.90;;;;;;5034601;28;20200;-70
2023/09/29 05:05:34;;;;;;;3.13;2.42;;;20.70;99.90;;;;;;5035523;28;20196;-72
2023/09/29 05:07:59;;;;;;;4.22;2.60;;;20.70;99.90;;;;;;5037230;28;20239;-71
2023/09/29 05:10:27;;;;;;;3.88;2.55;;;20.70;99.90;;;;;;5041122;28;20204;-70
2023/09/29 05:12:53;;;;;;;3.00;2.70;;;20.70;99.90;;;;;;5035514;28;20255;-72
2023/09/29 05:15:19;;;;;;;5.28;2.78;;;20.70;99.90;;;;;;5038680;28;20180;-71
2023/09/29 05:17:47;;;;;;;4.63;2.70;;;20.70;99.90;;;;;;5037813;28;20189;-71
2023/09/29 05:20:12;;;;;;;4.15;2.50;;;20.70;99.90;;;;;;5035094;28;20212;-71
2023/09/29 05:22:38;;;;;;;3.65;2.58;;;20.70;99.90;;;;;;5035703;28;20219;-71
2023/09/29 05:25:06;;;;;;;3.60;2.65;;;20.60;99.90;;;;;;5036691;28;20169;-72
2023/09/29 05:27:34;;;;;;;3.65;2.60;;;20.60;99.90;;;;;;5040434;28;20266;-71
2023/09/29 05:30:03;;;;;;;2.97;2.25;;;20.60;99.90;;;;;;5039445;28;20173;-72
2023/09/29 05:32:28;;;;;;;3.38;2.47;;;20.60;99.90;;;;;;5041072;28;20361;-72
2023/09/29 05:34:54;;;;;;;3.65;2.05;;;20.60;99.90;;;;;;5041749;28;20262;-71
2023/09/29 05:37:19;;;;;;;2.78;2.20;;;20.60;99.90;;;;;;5038792;28;20193;-70
2023/09/29 05:39:48;;;;;;;2.63;2.17;;;20.60;99.90;;;;;;5041509;28;20292;-72
2023/09/29 05:42:13;;;;;;;4.07;2.38;;;20.60;99.90;;;;;;5038920;28;20216;-71
2023/09/29 05:44:39;;;;;;;3.70;2.35;;;20.50;99.90;;;;;;5040845;28;20212;-71
2023/09/29 05:47:07;;;;;;;3.08;2.38;;;20.60;99.90;;;;;;5042571;28;20208;-72
2023/09/29 05:49:32;;;;;;;3.55;2.60;;;20.50;99.90;;;;;;5057448;28;20208;-72
2023/09/29 05:51:58;;;;;;;3.22;2.28;;;20.50;99.90;;;;;;5041402;28;20209;-71
2023/09/29 05:54:26;;;;;;;2.92;2.22;;;20.50;99.90;;;;;;5039622;28;20545;-70
2023/09/29 05:56:54;;;;;;;4.95;2.80;;;20.50;99.90;;;;;;5037659;28;20181;-71
2023/09/29 05:59:20;;;;;;;3.47;2.70;;;20.50;99.90;;;;;;5038240;28;20177;-69
2023/09/29 06:01:48;;;;;;;3.30;2.53;;;20.50;99.90;;;;;;5038377;28;20212;-71
2023/09/29 06:04:16;;;;;;;3.22;2.40;;;20.50;99.90;;;;;;5037447;28;20231;-70
2023/09/29 06:06:41;;;;;;;3.85;2.60;;;20.40;99.90;;;;;;5038890;28;20201;-70
2023/09/29 06:09:09;;;;;;;4.10;2.80;;;20.40;99.90;;;;;;5039063;28;20189;-72
2023/09/29 06:11:35;;;;;;;3.08;2.35;;;20.40;99.90;;;;;;5038464;28;20188;-71
2023/09/29 06:14:02;;;;;;;2.95;2.22;;;20.40;99.90;;;;;;5037410;28;20178;-70
2023/09/29 06:16:28;;;;;;;2.97;2.30;;;20.40;99.90;;;;;;5037641;28;20207;-71
2023/09/29 06:18:56;;;;;;;3.33;2.20;;;20.40;99.90;;;;;;5039451;28;20322;-71
2023/09/29 06:21:22;;;;;;;3.30;2.33;;;20.40;99.90;;;;;;5039555;28;20181;-70
2023/09/29 06:23:50;;;;;;;4.68;2.35;;;20.40;99.90;;;;;;5037674;28;20177;-73
2023/09/29 06:26:16;;;;;;;2.85;2.30;;;20.50;99.90;;;;;;5038356;28;20281;-70
2023/09/29 06:28:44;;;;;;;4.07;2.33;;;20.50;99.90;;;;;;5039448;28;20280;-71
2023/09/29 06:31:10;;;;;;;2.70;1.88;;;20.60;99.90;;;;;;5041051;28;20190;-71
2023/09/29 06:33:35;;;;;;;2.58;2.13;;;20.60;99.90;;;;;;5038983;28;20181;-69
2023/09/29 06:36:03;;;;;;;4.35;2.67;;;20.70;99.90;;;;;;5039545;28;20211;-71
2023/09/29 06:38:32;;;;;;;3.80;2.30;;;20.80;99.90;;;;;;5037186;28;20236;-72
2023/09/29 06:40:58;;;;;;;3.60;2.42;;;20.80;99.90;;;;;;5072172;28;21062;-69
2023/09/29 06:43:24;;;;;;;3.70;2.22;;;20.90;99.90;;;;;;5040294;28;20232;-72
2023/09/29 06:45:50;;;;;;;4.53;2.45;;;20.90;99.90;;;;;;5036172;28;20228;-70
2023/09/29 06:48:15;;;;;;;4.32;2.22;;;21.00;99.90;;;;;;5037535;28;20185;-71
2023/09/29 06:50:41;;;;;;;5.88;2.55;;;21.10;99.90;;;;;;5038754;28;20173;-72
2023/09/29 06:53:06;;;;;;;4.28;2.00;;;21.10;99.90;;;;;;5037618;28;20181;-68
2023/09/29 06:55:32;;;;;;;3.03;2.10;;;21.20;99.90;;;;;;5037469;28;20180;-73
2023/09/29 06:57:59;;;;;;;3.03;2.17;;;21.20;99.90;;;;;;5038542;28;20188;-70
2023/09/29 07:00:25;;;;;;;2.70;2.10;;;21.20;99.90;;;;;;5038195;28;20209;-72
2023/09/29 07:02:55;;;;;;;3.30;2.15;;;21.30;99.90;;;;;;5036663;28;20233;-72
2023/09/29 07:05:21;;;;;;;3.53;2.20;;;21.30;99.90;;;;;;5069924;28;20174;-70
2023/09/29 07:07:46;;;;;;;2.92;2.00;;;21.40;99.90;;;;;;5038396;28;20205;-69
2023/09/29 07:10:14;;;;;;;2.25;2.00;;;21.40;99.90;;;;;;5037083;28;20201;-73
2023/09/29 07:12:40;;;;;;;3.80;2.35;;;21.40;99.90;;;;;;5038919;28;20187;-71
2023/09/29 07:15:06;;;;;;;2.88;2.00;;;21.50;99.90;;;;;;5036561;28;20182;-71
2023/09/29 07:17:32;;;;;;;3.60;2.10;;;21.50;99.90;;;;;;5037109;28;20201;-71
2023/09/29 07:19:58;;;;;;;3.55;2.20;;;21.50;99.90;;;;;;5038668;28;20189;-71
2023/09/29 07:22:26;;;;;;;3.72;2.08;;;21.50;99.90;;;;;;5039295;28;20189;-71
2023/09/29 07:24:57;;;;;;;3.20;2.20;;;21.60;99.90;;;;;;5037713;28;20201;-72
2023/09/29 07:27:23;;;;;;;3.15;2.03;;;21.60;99.90;;;;;;5037568;28;20361;-71
2023/09/29 07:29:49;;;;;;;3.47;2.50;;;21.60;99.90;;;;;;5038743;28;20177;-71
2023/09/29 07:32:17;;;;;;;3.83;2.20;;;21.70;99.90;;;;;;5038060;28;20189;-72
2023/09/29 07:34:43;;;;;;;3.10;2.30;;;21.70;99.90;;;;;;5037373;28;20192;-72
2023/09/29 07:37:08;;;;;;;3.75;2.17;;;21.70;99.90;;;;;;5042420;28;20209;-69
2023/09/29 07:39:34;;;;;;;3.50;2.45;;;21.80;99.90;;;;;;5042502;28;20205;-73
2023/09/29 07:42:04;;;;;;;2.95;2.25;;;21.80;99.90;;;;;;5042989;28;20176;-72
2023/09/29 07:44:31;;;;;;;2.47;2.05;;;21.90;99.90;;;;;;5039457;28;20449;-71
2023/09/29 07:47:02;;;;;;;2.72;2.45;;;22.00;99.90;;;;;;5038513;28;20213;-69
2023/09/29 07:49:27;;;;;;;4.30;2.55;;;22.10;99.90;;;;;;5037320;28;20193;-72
2023/09/29 07:51:58;;;;;;;2.85;2.20;;;22.20;99.90;;;;;;5053791;28;20211;-72
2023/09/29 07:54:26;;;;;;;2.65;2.30;;;22.30;99.90;;;;;;5038117;28;20216;-70
2023/09/29 07:56:51;;;;;;;3.00;2.10;;;22.40;99.90;;;;;;5056818;28;20177;-71
2023/09/29 07:59:18;;;;;;;3.28;2.20;;;22.50;99.90;;;;;;5035832;28;20204;-71
2023/09/29 08:01:48;;;;;;;3.35;1.98;;;22.60;99.90;;;;;;5039317;28;20204;-72
2023/09/29 08:04:13;;;;;;;3.38;1.80;;;22.70;99.90;;;;;;5036290;28;20188;-69
2023/09/29 08:06:44;;;;;;;3.55;2.30;;;22.80;99.90;;;;;;5035918;28;20199;-71
2023/09/29 08:09:12;;;;;;;4.03;2.35;;;22.90;99.90;;;;;;5037682;28;20218;-68
2023/09/29 08:11:39;;;;;;;2.33;1.90;;;23.00;99.90;;;;;;5036478;28;20235;-71
2023/09/29 08:14:04;;;;;;;2.75;1.80;;;23.10;99.90;;;;;;5037620;28;21214;-72
2023/09/29 08:16:30;;;;;;;4.53;2.08;;;23.20;99.90;;;;;;5037305;28;20268;-71
2023/09/29 08:18:56;;;;;;;4.53;2.15;;;23.30;99.90;;;;;;5036551;28;20209;-68
2023/09/29 08:21:24;;;;;;;3.40;2.58;;;23.40;99.90;;;;;;5036835;28;20192;-71
2023/09/29 08:23:50;;;;;;;3.05;2.00;;;23.50;99.90;;;;;;5036514;28;20185;-70
2023/09/29 08:26:18;;;;;;;3.10;1.88;;;23.60;99.90;;;;;;5037276;28;20237;-70
2023/09/29 08:28:43;;;;;;;2.55;1.92;;;23.70;99.90;;;;;;5036838;28;20181;-71
2023/09/29 08:31:16;;;;;;;2.72;1.98;;;23.70;99.90;;;;;;5036335;28;20242;-70
2023/09/29 08:33:42;;;;;;;2.20;1.80;;;23.90;99.90;;;;;;5036132;28;20173;-70
2023/09/29 08:36:12;;;;;;;3.92;2.10;;;23.90;99.90;;;;;;5037684;28;20181;-70
2023/09/29 08:38:38;;;;;;;2.53;1.85;;;24.00;99.90;;;;;;5035132;28;20197;-71
2023/09/29 08:41:04;;;;;;;3.78;2.25;;;24.10;99.90;;;;;;5035808;28;20181;-71
2023/09/29 08:43:31;;;;;;;2.60;2.00;;;24.10;99.90;;;;;;5037057;28;20193;-70
2023/09/29 08:45:58;;;;;;;2.63;1.98;;;24.10;99.90;;;;;;5035912;28;20209;-70
2023/09/29 08:48:27;;;;;;;3.30;2.22;;;24.10;99.90;;;;;;5035811;28;20189;-71
2023/09/29 08:50:55;;;;;;;3.03;2.15;;;24.20;99.90;;;;;;5036843;28;20205;-70
2023/09/29 08:53:26;;;;;;;3.50;2.38;;;24.20;99.90;;;;;;5035520;28;20230;-71
2023/09/29 08:55:56;;;;;;;3.40;3.00;;;24.20;99.90;;;;;;5034691;28;20181;-71
2023/09/29 08:58:26;;;;;;;3.67;2.60;;;24.20;99.90;;;;;;5037054;28;20189;-70
2023/09/29 09:00:51;;;;;;;4.55;2.40;;;24.10;99.90;;;;;;5039202;28;20250;-70
2023/09/29 09:03:20;;;;;;;3.38;2.30;;;24.10;99.90;;;;;;5074011;28;20177;-70
2023/09/29 09:05:47;;;;;;;3.38;2.22;;;24.20;99.90;;;;;;5056405;28;20188;-71
2023/09/29 09:08:12;;;;;;;3.95;2.08;;;24.20;99.90;;;;;;5041703;28;20180;-70
2023/09/29 09:10:38;;;;;;;4.30;2.92;;;24.20;99.90;;;;;;5040722;28;20181;-69
2023/09/29 09:13:08;;;;;;;3.80;2.30;;;24.30;99.90;;;;;;5042075;28;20192;-69
2023/09/29 09:15:34;;;;;;;4.38;2.50;;;24.30;99.90;;;;;;5041049;28;20177;-70
2023/09/29 09:18:00;;;;;;;4.90;2.38;;;24.40;99.90;;;;;;5040230;28;20197;-70
2023/09/29 09:20:29;;;;;;;3.92;2.33;;;24.50;99.90;;;;;;5041270;28;20209;-70
2023/09/29 09:22:59;;;;;;;5.07;2.40;;;24.60;99.90;;;;;;5040466;28;20187;-71
2023/09/29 09:25:36;;;;;;;3.35;2.42;;;24.70;99.90;;;;;;5057336;28;20181;-70
2023/09/29 09:28:02;;;;;;;3.25;2.53;;;24.90;99.90;;;;;;5041676;28;20209;-68
2023/09/29 09:30:35;;;;;;;3.28;2.08;;;25.20;99.90;;;;;;5040237;28;20248;-72
2023/09/29 09:33:03;;;;;;;2.92;2.10;;;25.50;99.90;;;;;;5040433;28;20173;-70
2023/09/29 09:35:29;;;;;;;3.13;2.20;;;25.80;99.90;;;;;;5041852;28;20211;-68
2023/09/29 09:37:59;;;;;;;3.22;2.40;;;26.10;99.90;;;;;;5260269;22;20231;-70
2023/09/29 09:40:25;;;;;;;2.50;2.28;;;26.50;99.90;;;;;;5044355;28;20186;-69
2023/09/29 09:42:53;;;;;;;4.07;2.72;;;26.90;99.90;;;;;;5039324;28;20189;-71
2023/09/29 09:45:25;;;;;;;4.82;2.60;;;27.20;99.90;;;;;;5039433;28;20261;-69
2023/09/29 09:47:59;;;;;;;4.43;2.72;;;27.30;99.90;;;;;;5039991;28;20232;-70
2023/09/29 09:50:30;;;;;;;2.83;2.33;;;27.20;99.90;;;;;;5039412;28;20181;-71
2023/09/29 09:52:59;;;;;;;2.80;2.30;;;27.10;99.90;;;;;;5037235;28;20174;-68
2023/09/29 09:55:41;;;;;;;3.28;2.10;;;27.10;99.90;;;;;;5035992;28;20198;-71
2023/09/29 09:58:12;;;;;;;4.43;2.60;;;27.40;99.90;;;;;;5037199;28;20273;-72
2023/09/29 10:00:45;;;;;;;3.25;2.20;;;27.60;99.90;;;;;;5039775;28;20216;-71
2023/09/29 10:03:12;;;;;;;4.47;2.60;;;27.60;99.90;;;;;;5037695;28;20239;-71
2023/09/29 10:05:52;;;;;;;2.45;2.17;;;27.60;99.90;;;;;;5040331;28;20550;-68
2023/09/29 10:08:32;;;;;;;6.47;2.38;;;27.50;99.90;;;;;;5037892;28;20830;-71
2023/09/29 10:11:16;;;;;;;3.15;2.10;;;27.30;99.90;;;;;;5037220;28;20185;-71
2023/09/29 10:13:46;;;;;;;4.60;2.30;;;27.20;99.90;;;;;;5039878;28;20174;-70
2023/09/29 10:16:25;;;;;;;3.70;2.47;;;27.10;99.90;;;;;;5037551;28;20194;-70
2023/09/29 10:19:05;;;;;;;3.42;2.30;;;27.10;99.90;;;;;;5038488;28;20250;-70
2023/09/29 10:21:42;;;;;;;3.00;2.33;;;27.00;99.90;;;;;;5038407;28;20230;-70
2023/09/29 10:24:11;;;;;;;3.10;2.20;;;26.90;99.90;;;;;;5037454;28;20185;-71
2023/09/29 10:26:48;;;;;;;4.88;2.22;;;26.80;99.90;;;;;;5040651;28;20205;-71
2023/09/29 10:29:27;;;;;;;2.95;2.30;;;26.70;99.90;;;;;;5036351;28;20201;-69
2023/09/29 10:31:53;;;;;;;2.30;1.83;;;26.60;99.90;;;;;;5037810;28;20511;-71
2023/09/29 10:34:21;;;;;;;3.95;1.95;;;26.50;99.90;;;;;;5037606;28;20194;-71
2023/09/29 10:36:59;;;;;;;2.45;1.90;;;26.40;99.90;;;;;;5036756;28;20220;-71
2023/09/29 10:39:26;;;;;;;3.13;1.85;;;26.40;99.90;;;;;;5036502;28;20204;-70
2023/09/29 10:41:58;;;;;;;4.35;2.10;;;26.30;99.90;;;;;;5037513;28;20297;-71
2023/09/29 10:44:29;;;;;;;2.70;2.00;;;26.30;99.90;;;;;;5036710;28;20185;-72
2023/09/29 10:46:55;;;;;;;3.17;1.80;;;26.20;99.90;;;;;;5034037;28;20202;-69
2023/09/29 10:49:34;;;;;;;2.15;1.65;;;26.20;99.90;;;;;;5037556;28;20188;-71
2023/09/29 10:52:04;;;;;;;4.10;2.20;;;26.10;99.90;;;;;;5021931;28;20216;-71
2023/09/29 10:54:30;;;;;;;3.20;1.92;;;26.10;99.90;;;;;;5037928;28;20177;-71
2023/09/29 10:56:56;;;;;;;2.70;2.03;;;26.10;99.90;;;;;;5039298;28;20205;-71
2023/09/29 10:59:22;;;;;;;3.90;2.25;;;26.00;99.90;;;;;;5039252;28;20288;-70
2023/09/29 11:01:48;;;;;;;2.60;1.73;;;25.90;99.90;;;;;;5036442;28;20274;-71
2023/09/29 11:04:16;;;;;;;3.25;2.13;;;25.90;99.90;;;;;;5038091;28;20198;-70
2023/09/29 11:06:46;;;;;;;4.00;2.63;;;25.80;99.90;;;;;;5039266;28;20277;-71
2023/09/29 11:09:28;;;;;;;4.88;2.58;;;25.70;99.90;;;;;;5037002;28;20235;-70
2023/09/29 11:11:56;;;;;;;5.22;2.80;;;25.60;99.90;;;;;;5042419;28;20205;-70
2023/09/29 11:14:22;;;;;;;5.28;2.55;;;25.50;99.90;;;;;;5039147;28;20186;-72
2023/09/29 11:16:57;;;;;;;3.95;2.65;;;25.50;99.90;;;;;;5040340;28;20217;-71
2023/09/29 11:19:25;;;;;;;4.60;2.88;;;25.40;99.90;;;;;;5036624;28;20177;-69
2023/09/29 11:21:54;;;;;;;5.00;2.92;;;25.40;99.90;;;;;;5037279;28;20243;-71
2023/09/29 11:24:19;;;;;;;7.45;3.65;;;25.40;99.90;;;;;;5037218;28;20173;-72
2023/09/29 11:26:48;;;;;;;5.07;3.10;;;25.40;99.90;;;;;;5035389;28;21263;-71
2023/09/29 11:29:25;;;;;;;7.53;4.28;;;25.50;99.90;;;;;;5037202;28;20189;-72
2023/09/29 11:31:51;;;;;;;7.13;4.05;;;25.60;99.90;;;;;;5034755;28;20177;-72
2023/09/29 11:34:19;;;;;;;6.32;3.55;;;25.60;99.90;;;;;;5034076;28;20221;-72
2023/09/29 11:36:48;;;;;;;7.28;4.10;;;25.70;99.90;;;;;;5036180;28;20206;-71
2023/09/29 11:39:18;;;;;;;9.60;4.72;;;25.80;99.90;;;;;;5037760;28;20218;-72
2023/09/29 11:41:45;;;;;;;8.32;4.50;;;25.80;99.90;;;;;;5035445;28;20194;-71
2023/09/29 11:44:11;;;;;;;10.60;5.43;;;26.00;99.90;;;;;;5035033;28;20210;-71
2023/09/29 11:46:39;;;;;;;10.52;5.38;;;26.10;99.90;;;;;;5034302;28;20193;-72
2023/09/29 11:49:05;;;;;;;11.57;6.55;;;26.20;99.90;;;;;;5033348;28;20197;-71
2023/09/29 11:51:31;;;;;;;13.55;6.75;;;26.30;99.90;;;;;;5034583;28;20205;-69
2023/09/29 11:53:57;;;;;;;17.58;6.90;;;26.30;99.90;;;;;;5034626;28;20205;-71
2023/09/29 11:56:25;;;;;;;13.02;6.97;;;26.40;99.90;;;;;;5034121;28;20186;-70
2023/09/29 11:58:50;;;;;;;15.45;7.75;;;26.40;99.90;;;;;;5037202;28;20181;-70
2023/09/29 12:01:17;;;;;;;16.27;8.88;;;26.40;99.90;;;;;;5035551;28;20181;-69
2023/09/29 12:03:45;;;;;;;15.52;9.05;;;26.50;99.90;;;;;;5035433;28;20214;-70
2023/09/29 12:06:13;;;;;;;16.98;9.68;;;26.50;99.90;;;;;;5034282;28;20207;-68
2023/09/29 12:08:38;;;;;;;18.00;9.20;;;26.60;99.90;;;;;;5036403;28;20197;-71
2023/09/29 12:11:05;;;;;;;19.30;10.23;;;26.60;99.90;;;;;;5033408;28;20226;-70
2023/09/29 12:13:33;;;;;;;19.25;9.43;;;26.60;99.90;;;;;;5032471;28;20180;-71
2023/09/29 12:15:59;;;;;;;18.23;9.82;;;26.60;99.90;;;;;;5033709;28;20267;-73
2023/09/29 12:18:26;;;;;;;18.70;9.55;;;26.60;99.90;;;;;;5034861;28;20182;-71
2023/09/29 12:20:53;;;;;;;17.13;8.93;;;26.60;99.90;;;;;;5033490;28;20202;-72
2023/09/29 12:23:19;;;;;;;16.13;8.40;;;26.60;99.90;;;;;;5036051;28;20251;-73
2023/09/29 12:25:44;;;;;;;14.73;7.43;;;26.70;99.90;;;;;;5038304;28;20174;-72
2023/09/29 12:28:10;;;;;;;11.98;6.32;;;26.70;99.90;;;;;;5038619;28;20212;-70
2023/09/29 12:30:36;;;;;;;12.18;6.57;;;26.70;99.90;;;;;;5035247;28;20227;-71
2023/09/29 12:33:02;;;;;;;12.27;6.25;;;26.80;99.90;;;;;;5033048;28;20185;-72
2023/09/29 12:35:27;;;;;;;11.98;6.57;;;26.90;99.90;;;;;;5041475;28;20214;-71
2023/09/29 12:37:53;;;;;;;12.35;6.32;;;27.00;99.90;;;;;;5039809;28;20266;-71
2023/09/29 12:40:21;;;;;;;12.23;6.57;;;27.10;99.90;;;;;;5040719;28;20212;-71
2023/09/29 12:42:50;;;;;;;13.80;7.25;;;27.20;99.90;;;;;;5040737;28;20205;-70
2023/09/29 12:45:21;;;;;;;14.50;6.82;;;27.30;99.90;;;;;;5041504;28;20180;-71
2023/09/29 12:47:48;;;;;;;15.63;7.90;;;27.30;99.90;;;;;;5040361;28;20240;-68